createdAt,value
2017-12-21T00:01:34.205Z,98.79
2017-12-21T00:04:01.664Z,99.02
2017-12-21T00:06:29.188Z,98.63
2017-12-21T00:08:56.645Z,98.60
2017-12-21T00:11:24.104Z,98.63
2017-12-21T00:13:51.588Z,99.23
2017-12-21T00:16:19.044Z,99.39
2017-12-21T00:18:46.520Z,99.60
2017-12-21T00:21:13.980Z,99.60
2017-12-21T00:23:41.460Z,99.63
2017-12-21T00:26:08.937Z,100.00
2017-12-21T00:28:36.420Z,100.00
2017-12-21T00:31:03.936Z,100.00
2017-12-21T00:33:31.424Z,100.00
2017-12-21T00:35:58.971Z,100.00
2017-12-21T00:38:26.451Z,99.88
2017-12-21T00:40:53.932Z,99.54
2017-12-21T00:43:21.450Z,99.22
2017-12-21T00:45:48.921Z,98.87
2017-12-21T00:48:16.488Z,99.16
2017-12-21T00:50:43.935Z,99.41
2017-12-21T00:53:11.397Z,99.82
2017-12-21T00:55:38.884Z,100.00
2017-12-21T00:58:06.348Z,100.00
2017-12-21T01:00:33.828Z,100.00
2017-12-21T01:03:01.284Z,100.00
2017-12-21T01:05:28.754Z,100.00
2017-12-21T01:07:56.220Z,100.00
2017-12-21T01:10:23.715Z,100.00
2017-12-21T01:12:51.176Z,99.90
2017-12-21T01:15:18.668Z,99.44
2017-12-21T01:17:46.129Z,99.20
2017-12-21T01:20:13.604Z,99.07
2017-12-21T01:22:41.127Z,98.93
2017-12-21T01:25:08.608Z,99.01
2017-12-21T01:27:36.927Z,99.28
2017-12-21T01:30:04.400Z,99.04
2017-12-21T01:32:31.855Z,99.13
2017-12-21T01:34:59.332Z,98.98
2017-12-21T01:37:26.788Z,98.73
2017-12-21T01:39:54.360Z,98.55
2017-12-21T01:42:21.820Z,98.46
2017-12-21T01:44:50.203Z,98.96
2017-12-21T01:47:17.671Z,98.49
2017-12-21T01:49:45.128Z,98.54
2017-12-21T01:52:12.607Z,98.57
2017-12-21T01:54:40.064Z,98.87
2017-12-21T01:57:07.537Z,98.89
2017-12-21T01:59:34.983Z,98.75
2017-12-21T02:02:02.460Z,98.66
2017-12-21T02:04:29.912Z,97.57
2017-12-21T02:06:57.371Z,97.75
2017-12-21T02:09:24.828Z,98.00
2017-12-21T02:11:52.610Z,98.06
2017-12-21T02:14:20.088Z,97.80
2017-12-21T02:16:47.576Z,97.72
2017-12-21T02:19:15.013Z,97.81
2017-12-21T02:21:42.563Z,98.47
2017-12-21T02:24:10.018Z,98.59
2017-12-21T02:26:37.487Z,98.41
2017-12-21T02:29:04.936Z,98.57
2017-12-21T02:31:32.411Z,98.70
2017-12-21T02:33:59.870Z,98.72
2017-12-21T02:36:27.394Z,99.04
2017-12-21T02:38:54.850Z,98.76
2017-12-21T02:41:22.304Z,98.49
2017-12-21T02:43:49.893Z,98.20
2017-12-21T02:46:17.351Z,98.44
2017-12-21T02:48:44.819Z,98.31
2017-12-21T02:51:12.259Z,98.06
2017-12-21T02:53:39.731Z,98.26
2017-12-21T02:56:07.180Z,98.79
2017-12-21T02:58:34.651Z,98.73
2017-12-21T03:01:02.098Z,98.55
2017-12-21T03:03:29.577Z,98.96
2017-12-21T03:05:57.014Z,98.76
2017-12-21T03:08:24.524Z,98.55
2017-12-21T03:10:51.954Z,98.50
2017-12-21T03:13:19.415Z,98.14
2017-12-21T03:15:46.897Z,97.83
2017-12-21T03:18:14.343Z,98.21
2017-12-21T03:20:41.802Z,97.97
2017-12-21T03:23:09.243Z,97.95
2017-12-21T03:25:36.737Z,97.91
2017-12-21T03:28:04.196Z,97.87
2017-12-21T03:30:31.647Z,97.80
2017-12-21T03:32:59.107Z,97.94
2017-12-21T03:35:26.562Z,97.82
2017-12-21T03:37:54.011Z,98.10
2017-12-21T03:40:21.498Z,98.44
2017-12-21T03:42:48.947Z,98.63
2017-12-21T03:45:16.412Z,98.55
2017-12-21T03:47:43.883Z,98.52
2017-12-21T03:50:11.355Z,98.17
2017-12-21T03:52:38.819Z,98.29
2017-12-21T03:55:06.265Z,98.81
2017-12-21T03:57:33.773Z,99.20
2017-12-21T04:00:01.226Z,99.43
2017-12-21T04:02:28.708Z,99.21
2017-12-21T04:04:56.151Z,99.02
2017-12-21T04:07:23.628Z,98.99
2017-12-21T04:09:51.077Z,98.54
2017-12-21T04:12:18.547Z,98.85
2017-12-21T04:14:45.986Z,98.95
2017-12-21T04:17:13.443Z,99.18
2017-12-21T04:19:40.896Z,99.21
2017-12-21T04:22:08.372Z,98.60
2017-12-21T04:24:35.817Z,98.37
2017-12-21T04:27:03.279Z,97.98
2017-12-21T04:29:30.723Z,98.07
2017-12-21T04:31:58.183Z,97.81
2017-12-21T04:34:25.637Z,98.00
2017-12-21T04:36:53.079Z,97.94
2017-12-21T04:39:20.566Z,98.17
2017-12-21T04:41:48.037Z,98.00
2017-12-21T04:44:15.556Z,98.10
2017-12-21T04:46:43.007Z,98.16
2017-12-21T04:49:10.479Z,98.50
2017-12-21T04:51:37.927Z,98.41
2017-12-21T04:54:05.395Z,98.59
2017-12-21T04:56:32.848Z,98.83
2017-12-21T04:59:00.322Z,99.03
2017-12-21T05:01:27.774Z,98.91
2017-12-21T05:03:55.240Z,99.04
2017-12-21T05:06:22.682Z,99.32
2017-12-21T05:08:50.140Z,99.51
2017-12-21T05:11:17.582Z,99.50
2017-12-21T05:13:45.036Z,99.44
2017-12-21T05:16:12.515Z,98.95
2017-12-21T05:18:39.957Z,98.12
2017-12-21T05:21:07.408Z,98.86
2017-12-21T05:23:34.856Z,98.50
2017-12-21T05:26:02.325Z,98.04
2017-12-21T05:28:29.757Z,97.59
2017-12-21T05:30:57.224Z,97.66
2017-12-21T05:33:24.667Z,97.72
2017-12-21T05:35:52.136Z,97.73
2017-12-21T05:38:19.568Z,97.85
2017-12-21T05:40:47.035Z,97.48
2017-12-21T05:43:14.504Z,97.76
2017-12-21T05:45:41.971Z,97.89
2017-12-21T05:48:09.417Z,97.87
2017-12-21T05:50:36.879Z,98.42
2017-12-21T05:53:04.316Z,98.69
2017-12-21T05:55:31.800Z,98.84
2017-12-21T05:57:59.255Z,98.64
2017-12-21T06:00:26.703Z,98.37
2017-12-21T06:02:54.193Z,98.69
2017-12-21T06:05:21.731Z,98.39
2017-12-21T06:07:49.206Z,98.06
2017-12-21T06:10:16.659Z,97.83
2017-12-21T06:12:44.187Z,97.77
2017-12-21T06:15:11.638Z,97.51
2017-12-21T06:17:39.110Z,97.52
2017-12-21T06:20:06.585Z,97.64
2017-12-21T06:22:34.038Z,97.54
2017-12-21T06:25:01.526Z,97.24
2017-12-21T06:27:29.008Z,97.17
2017-12-21T06:29:56.508Z,97.08
2017-12-21T06:32:24.003Z,96.75
2017-12-21T06:34:51.455Z,97.33
2017-12-21T06:37:18.924Z,97.34
2017-12-21T06:39:46.393Z,97.25
2017-12-21T06:42:13.841Z,97.15
2017-12-21T06:44:41.269Z,97.40
2017-12-21T06:47:08.774Z,97.29
2017-12-21T06:49:36.994Z,97.53
2017-12-21T06:52:04.497Z,97.62
2017-12-21T06:54:31.980Z,97.64
2017-12-21T06:56:59.427Z,97.20
2017-12-21T06:59:26.900Z,97.33
2017-12-21T07:01:54.339Z,97.28
2017-12-21T07:04:21.810Z,97.17
2017-12-21T07:06:49.583Z,97.19
2017-12-21T07:09:17.043Z,97.12
2017-12-21T07:11:44.496Z,97.12
2017-12-21T07:14:11.964Z,96.94
2017-12-21T07:16:39.397Z,97.01
2017-12-21T07:19:06.870Z,96.89
2017-12-21T07:21:34.302Z,96.88
2017-12-21T07:24:01.754Z,96.93
2017-12-21T07:26:29.199Z,96.85
2017-12-21T07:28:56.769Z,97.11
2017-12-21T07:31:24.230Z,97.18
2017-12-21T07:33:51.703Z,97.44
2017-12-21T07:36:19.139Z,97.74
2017-12-21T07:38:46.569Z,97.55
2017-12-21T07:41:14.031Z,97.55
2017-12-21T07:43:41.466Z,97.51
2017-12-21T07:46:08.943Z,97.38
2017-12-21T07:48:36.391Z,97.37
2017-12-21T07:51:03.883Z,97.13
2017-12-21T07:53:31.322Z,97.03
2017-12-21T07:55:58.852Z,97.09
2017-12-21T07:58:26.304Z,97.07
2017-12-21T08:00:53.773Z,97.34
2017-12-21T08:03:21.223Z,97.32
2017-12-21T08:05:48.702Z,97.02
2017-12-21T08:08:16.148Z,97.08
2017-12-21T08:10:43.615Z,97.04
2017-12-21T08:13:11.079Z,97.35
2017-12-21T08:15:38.537Z,97.68
2017-12-21T08:18:06.001Z,97.83
2017-12-21T08:20:33.555Z,97.65
2017-12-21T08:23:01.031Z,97.45
2017-12-21T08:25:28.461Z,97.14
2017-12-21T08:27:55.931Z,97.24
2017-12-21T08:30:23.439Z,97.55
2017-12-21T08:32:50.899Z,97.78
2017-12-21T08:35:18.350Z,98.37
2017-12-21T08:37:45.820Z,98.56
2017-12-21T08:40:13.263Z,98.11
2017-12-21T08:42:40.778Z,97.91
2017-12-21T08:45:08.239Z,97.78
2017-12-21T08:47:35.715Z,97.93
2017-12-21T08:50:03.154Z,97.44
2017-12-21T08:52:30.615Z,97.02
2017-12-21T08:54:58.045Z,96.14
2017-12-21T08:57:25.515Z,96.21
2017-12-21T08:59:53.013Z,96.08
2017-12-21T09:02:20.437Z,95.89
2017-12-21T09:04:47.875Z,96.18
2017-12-21T09:07:15.377Z,96.67
2017-12-21T09:09:42.819Z,96.69
2017-12-21T09:12:10.504Z,96.74
2017-12-21T09:14:37.991Z,96.81
2017-12-21T09:17:05.435Z,96.46
2017-12-21T09:19:32.888Z,96.38
2017-12-21T09:22:00.330Z,96.88
2017-12-21T09:24:27.840Z,96.37
2017-12-21T09:26:55.279Z,96.67
2017-12-21T09:29:22.739Z,96.49
2017-12-21T09:31:50.183Z,96.03
2017-12-21T09:34:17.644Z,95.98
2017-12-21T09:36:45.090Z,95.54
2017-12-21T09:39:12.555Z,95.64
2017-12-21T09:41:39.999Z,95.52
2017-12-21T09:44:07.649Z,94.97
2017-12-21T09:46:35.091Z,94.93
2017-12-21T09:49:02.631Z,95.02
2017-12-21T09:51:30.079Z,94.82
2017-12-21T09:53:57.546Z,94.52
2017-12-21T09:56:25.016Z,94.50
2017-12-21T09:58:52.463Z,94.77
2017-12-21T10:01:19.917Z,94.78
2017-12-21T10:03:47.367Z,94.81
2017-12-21T10:06:14.835Z,95.04
2017-12-21T10:08:42.283Z,95.03
2017-12-21T10:11:09.748Z,94.22
2017-12-21T10:13:37.191Z,94.62
2017-12-21T10:16:04.660Z,95.02
2017-12-21T10:18:32.108Z,95.12
2017-12-21T10:20:59.558Z,94.49
2017-12-21T10:23:26.997Z,93.66
2017-12-21T10:25:55.170Z,94.06
2017-12-21T10:28:22.616Z,94.19
2017-12-21T10:30:50.066Z,94.18
2017-12-21T10:33:17.493Z,93.84
2017-12-21T10:35:44.936Z,93.85
2017-12-21T10:38:12.402Z,94.22
2017-12-21T10:40:39.853Z,94.18
2017-12-21T10:43:07.367Z,94.76
2017-12-21T10:45:34.811Z,94.33
2017-12-21T10:48:02.276Z,94.06
2017-12-21T10:50:29.736Z,94.37
2017-12-21T10:52:57.181Z,93.88
2017-12-21T10:55:24.614Z,94.09
2017-12-21T10:57:52.080Z,93.99
2017-12-21T11:00:19.516Z,94.13
2017-12-21T11:02:46.995Z,93.62
2017-12-21T11:05:14.438Z,93.63
2017-12-21T11:07:41.942Z,94.06
2017-12-21T11:10:09.386Z,93.03
2017-12-21T11:12:36.836Z,92.89
2017-12-21T11:15:04.300Z,92.72
2017-12-21T11:17:31.756Z,92.52
2017-12-21T11:19:59.222Z,92.82
2017-12-21T11:22:26.669Z,93.05
2017-12-21T11:24:54.125Z,92.57
2017-12-21T11:27:21.572Z,92.39
2017-12-21T11:29:49.034Z,92.86
2017-12-21T11:32:16.487Z,92.76
2017-12-21T11:34:43.951Z,93.49
2017-12-21T11:37:11.392Z,92.87
2017-12-21T11:39:38.886Z,93.29
2017-12-21T11:42:06.332Z,93.90
2017-12-21T11:44:33.789Z,93.81
2017-12-21T11:47:01.246Z,93.38
2017-12-21T11:49:28.793Z,93.00
2017-12-21T11:51:56.495Z,93.91
2017-12-21T11:54:23.961Z,93.93
2017-12-21T11:56:51.404Z,93.98
2017-12-21T11:59:18.863Z,94.27
2017-12-21T12:01:46.293Z,94.39
2017-12-21T12:04:13.735Z,95.63
2017-12-21T12:06:41.192Z,95.26
2017-12-21T12:09:08.639Z,94.78
2017-12-21T12:11:36.108Z,94.75
2017-12-21T12:14:03.542Z,94.85
2017-12-21T12:16:30.999Z,94.66
2017-12-21T12:18:58.444Z,94.83
2017-12-21T12:21:25.907Z,94.64
2017-12-21T12:23:53.355Z,94.71
2017-12-21T12:26:20.820Z,94.99
2017-12-21T12:28:48.253Z,95.19
2017-12-21T12:31:15.724Z,95.57
2017-12-21T12:33:43.185Z,95.74
2017-12-21T12:36:10.651Z,95.49
2017-12-21T12:38:38.091Z,95.08
2017-12-21T12:41:05.586Z,95.54
2017-12-21T12:43:33.022Z,95.78
2017-12-21T12:46:00.467Z,96.12
2017-12-21T12:48:27.936Z,96.45
2017-12-21T12:50:55.398Z,96.89
2017-12-21T12:53:22.969Z,96.59
2017-12-21T12:55:50.397Z,95.80
2017-12-21T12:58:17.864Z,96.25
2017-12-21T13:00:45.798Z,95.70
2017-12-21T13:03:13.267Z,95.68
2017-12-21T13:05:40.716Z,95.79
2017-12-21T13:08:08.200Z,95.94
2017-12-21T13:10:35.653Z,95.90
2017-12-21T13:13:03.152Z,96.43
2017-12-21T13:15:30.702Z,96.33
2017-12-21T13:17:58.165Z,96.19
2017-12-21T13:20:25.631Z,95.93
2017-12-21T13:22:53.076Z,96.21
2017-12-21T13:25:20.546Z,96.67
2017-12-21T13:27:48.021Z,96.68
2017-12-21T13:30:15.483Z,96.78
2017-12-21T13:32:42.941Z,96.94
2017-12-21T13:35:10.408Z,96.89
2017-12-21T13:37:37.845Z,96.72
2017-12-21T13:40:05.306Z,96.76
2017-12-21T13:42:33.059Z,96.50
2017-12-21T13:45:00.558Z,96.15
2017-12-21T13:47:28.030Z,95.78
2017-12-21T13:49:55.507Z,96.10
2017-12-21T13:52:22.947Z,95.66
2017-12-21T13:54:50.399Z,95.91
2017-12-21T13:57:17.849Z,96.31
2017-12-21T13:59:45.304Z,96.09
2017-12-21T14:02:12.774Z,95.67
2017-12-21T14:04:40.228Z,95.73
2017-12-21T14:07:07.681Z,95.45
2017-12-21T14:09:35.128Z,95.24
2017-12-21T14:12:02.594Z,95.95
2017-12-21T14:14:30.040Z,95.35
2017-12-21T14:16:57.490Z,95.19
2017-12-21T14:19:24.937Z,95.09
2017-12-21T14:21:52.411Z,94.66
2017-12-21T14:24:19.858Z,94.86
2017-12-21T14:26:47.339Z,95.07
2017-12-21T14:29:14.770Z,94.80
2017-12-21T14:31:42.215Z,94.96
2017-12-21T14:34:09.707Z,94.31
2017-12-21T14:36:37.137Z,93.79
2017-12-21T14:39:04.605Z,94.05
2017-12-21T14:41:32.041Z,94.28
2017-12-21T14:43:59.508Z,94.41
2017-12-21T14:46:26.958Z,94.33
2017-12-21T14:48:54.424Z,94.67
2017-12-21T14:51:21.867Z,94.77
2017-12-21T14:53:49.336Z,95.12
2017-12-21T14:56:16.780Z,94.36
2017-12-21T14:58:44.233Z,95.05
2017-12-21T15:01:11.688Z,94.69
2017-12-21T15:03:39.154Z,94.30
2017-12-21T15:06:06.614Z,94.92
2017-12-21T15:08:34.046Z,94.57
2017-12-21T15:11:01.512Z,94.34
2017-12-21T15:13:28.959Z,94.90
2017-12-21T15:15:56.415Z,94.77
2017-12-21T15:18:24.246Z,94.78
2017-12-21T15:20:51.789Z,94.98
2017-12-21T15:23:19.508Z,94.92
2017-12-21T15:25:46.967Z,94.89
2017-12-21T15:28:14.416Z,94.86
2017-12-21T15:30:41.882Z,94.59
2017-12-21T15:33:09.328Z,94.59
2017-12-21T15:35:36.824Z,94.37
2017-12-21T15:38:04.258Z,94.52
2017-12-21T15:40:31.707Z,94.41
2017-12-21T15:42:59.162Z,94.69
2017-12-21T15:45:26.620Z,94.82
2017-12-21T15:47:54.106Z,94.69
2017-12-21T15:50:21.557Z,94.94
2017-12-21T15:52:49.026Z,94.74
2017-12-21T15:55:16.481Z,95.05
2017-12-21T15:57:43.955Z,94.06
2017-12-21T16:00:11.403Z,94.64
2017-12-21T16:02:38.867Z,94.05
2017-12-21T16:05:06.416Z,94.31
2017-12-21T16:07:33.880Z,94.43
2017-12-21T16:10:01.323Z,95.06
2017-12-21T16:12:28.800Z,94.53
2017-12-21T16:14:56.251Z,94.39
2017-12-21T16:17:23.710Z,93.03
2017-12-21T16:19:51.154Z,93.42
2017-12-21T16:22:18.606Z,93.05
2017-12-21T16:24:46.117Z,93.16
2017-12-21T16:27:13.575Z,92.97
2017-12-21T16:29:41.043Z,93.29
2017-12-21T16:32:08.484Z,93.67
2017-12-21T16:34:35.952Z,93.17
2017-12-21T16:37:03.400Z,93.00
2017-12-21T16:39:30.870Z,93.40
2017-12-21T16:41:58.335Z,93.63
2017-12-21T16:44:25.795Z,93.29
2017-12-21T16:46:53.300Z,92.91
2017-12-21T16:49:20.791Z,93.04
2017-12-21T16:51:48.229Z,93.30
2017-12-21T16:54:15.678Z,92.44
2017-12-21T16:56:43.158Z,93.28
2017-12-21T16:59:10.597Z,93.57
2017-12-21T17:01:38.067Z,93.42
2017-12-21T17:04:05.520Z,93.32
2017-12-21T17:06:32.996Z,93.37
2017-12-21T17:09:00.444Z,93.60
2017-12-21T17:11:27.902Z,93.65
2017-12-21T17:13:55.349Z,93.64
2017-12-21T17:16:22.816Z,93.66
2017-12-21T17:18:50.263Z,93.39
2017-12-21T17:21:17.727Z,93.24
2017-12-21T17:23:45.174Z,92.45
2017-12-21T17:26:12.641Z,92.22
2017-12-21T17:28:40.077Z,91.93
2017-12-21T17:31:07.601Z,92.05
2017-12-21T17:33:35.001Z,92.47
2017-12-21T17:36:02.447Z,92.69
2017-12-21T17:38:29.913Z,92.97
2017-12-21T17:40:57.350Z,93.29
2017-12-21T17:43:24.864Z,93.18
2017-12-21T17:45:52.279Z,93.03
2017-12-21T17:48:19.744Z,92.84
2017-12-21T17:50:47.176Z,92.71
2017-12-21T17:53:14.694Z,92.61
2017-12-21T17:55:42.135Z,92.36
2017-12-21T17:58:09.600Z,92.43
2017-12-21T18:00:37.048Z,92.09
2017-12-21T18:03:04.512Z,92.42
2017-12-21T18:05:31.973Z,92.22
2017-12-21T18:07:59.462Z,91.89
2017-12-21T18:10:26.899Z,91.98
2017-12-21T18:12:54.355Z,92.19
2017-12-21T18:15:21.792Z,92.08
2017-12-21T18:17:49.234Z,92.48
2017-12-21T18:20:16.699Z,92.12
2017-12-21T18:22:44.133Z,92.37
2017-12-21T18:25:11.594Z,91.72
2017-12-21T18:27:39.043Z,91.96
2017-12-21T18:30:06.498Z,92.32
2017-12-21T18:32:33.939Z,92.85
2017-12-21T18:35:01.403Z,92.92
2017-12-21T18:37:28.834Z,93.30
2017-12-21T18:39:56.294Z,93.13
2017-12-21T18:42:23.753Z,93.50
2017-12-21T18:44:51.224Z,94.18
2017-12-21T18:47:18.674Z,94.51
2017-12-21T18:49:46.120Z,94.89
2017-12-21T18:52:13.587Z,94.95
2017-12-21T18:54:41.023Z,95.11
2017-12-21T18:57:08.510Z,94.76
2017-12-21T18:59:35.951Z,94.58
2017-12-21T19:02:03.433Z,94.01
2017-12-21T19:04:30.865Z,94.57
2017-12-21T19:06:58.324Z,94.97
2017-12-21T19:09:25.761Z,94.74
2017-12-21T19:11:53.236Z,94.90
2017-12-21T19:14:20.775Z,94.76
2017-12-21T19:16:48.226Z,94.03
2017-12-21T19:19:15.675Z,94.65
2017-12-21T19:21:43.139Z,94.90
2017-12-21T19:24:10.648Z,95.04
2017-12-21T19:26:38.141Z,95.05
2017-12-21T19:29:05.593Z,95.51
2017-12-21T19:31:33.051Z,95.48
2017-12-21T19:34:00.521Z,95.74
2017-12-21T19:36:28.183Z,94.45
2017-12-21T19:38:55.638Z,94.37
2017-12-21T19:41:23.095Z,94.22
2017-12-21T19:43:50.553Z,93.89
2017-12-21T19:46:17.999Z,93.66
2017-12-21T19:48:45.453Z,94.07
2017-12-21T19:51:12.895Z,94.07
2017-12-21T19:53:40.360Z,93.91
2017-12-21T19:56:07.803Z,94.24
2017-12-21T19:58:35.253Z,94.87
2017-12-21T20:01:02.692Z,95.10
2017-12-21T20:03:30.153Z,95.45
2017-12-21T20:05:57.604Z,95.57
2017-12-21T20:08:25.065Z,95.52
2017-12-21T20:10:52.505Z,95.66
2017-12-21T20:13:19.987Z,95.18
2017-12-21T20:15:47.455Z,94.58
2017-12-21T20:18:14.898Z,94.39
2017-12-21T20:20:42.382Z,94.62
2017-12-21T20:23:09.833Z,94.95
2017-12-21T20:25:37.384Z,94.78
2017-12-21T20:28:04.827Z,94.66
2017-12-21T20:30:32.305Z,94.68
2017-12-21T20:32:59.747Z,94.42
2017-12-21T20:35:27.202Z,95.29
2017-12-21T20:37:54.655Z,96.16
2017-12-21T20:40:22.120Z,96.28
2017-12-21T20:42:49.567Z,96.03
2017-12-21T20:45:17.038Z,95.54
2017-12-21T20:47:44.485Z,95.11
2017-12-21T20:50:11.927Z,95.61
2017-12-21T20:52:39.396Z,95.68
2017-12-21T20:55:06.892Z,95.99
2017-12-21T20:57:34.351Z,96.25
2017-12-21T21:00:01.806Z,96.19
2017-12-21T21:02:29.294Z,96.15
2017-12-21T21:04:56.721Z,96.14
2017-12-21T21:07:24.229Z,96.07
2017-12-21T21:09:51.738Z,96.27
2017-12-21T21:12:19.163Z,96.43
2017-12-21T21:14:46.627Z,96.11
2017-12-21T21:17:14.130Z,96.27
2017-12-21T21:19:41.576Z,96.52
2017-12-21T21:22:09.015Z,96.70
2017-12-21T21:24:36.504Z,96.74
2017-12-21T21:27:03.983Z,96.55
2017-12-21T21:29:31.450Z,96.48
2017-12-21T21:31:58.948Z,96.52
2017-12-21T21:34:26.415Z,96.14
2017-12-21T21:36:53.867Z,95.65
2017-12-21T21:39:21.335Z,95.48
2017-12-21T21:41:48.810Z,95.54
2017-12-21T21:44:16.287Z,95.10
2017-12-21T21:46:43.725Z,94.61
2017-12-21T21:49:11.187Z,94.40
2017-12-21T21:51:38.632Z,94.81
2017-12-21T21:54:06.155Z,94.88
2017-12-21T21:56:33.599Z,94.99
2017-12-21T21:59:01.044Z,94.89
2017-12-21T22:01:28.517Z,95.06
2017-12-21T22:03:55.978Z,94.74
2017-12-21T22:06:23.434Z,95.21
2017-12-21T22:08:50.865Z,95.07
2017-12-21T22:11:18.327Z,94.78
2017-12-21T22:13:45.771Z,95.11
2017-12-21T22:16:13.280Z,95.66
2017-12-21T22:18:40.729Z,95.77
2017-12-21T22:21:08.297Z,95.78
2017-12-21T22:23:35.745Z,96.35
2017-12-21T22:26:03.210Z,96.35
2017-12-21T22:28:30.660Z,96.44
2017-12-21T22:30:58.173Z,96.46
2017-12-21T22:33:25.639Z,96.36
2017-12-21T22:35:53.103Z,95.96
2017-12-21T22:38:20.554Z,95.94
2017-12-21T22:40:48.059Z,95.58
2017-12-21T22:43:15.515Z,95.55
2017-12-21T22:45:42.963Z,95.31
2017-12-21T22:48:10.435Z,95.53
2017-12-21T22:50:38.951Z,95.21
2017-12-21T22:53:06.423Z,95.00
2017-12-21T22:55:33.948Z,94.94
2017-12-21T22:58:01.542Z,95.45
2017-12-21T23:00:29.257Z,95.29
2017-12-21T23:02:56.819Z,95.25
2017-12-21T23:05:24.280Z,95.08
2017-12-21T23:07:51.756Z,94.68
2017-12-21T23:10:19.219Z,94.97
2017-12-21T23:12:47.009Z,95.44
2017-12-21T23:15:14.630Z,95.46
2017-12-21T23:17:42.091Z,95.45
2017-12-21T23:20:09.568Z,95.42
2017-12-21T23:22:37.299Z,95.73
2017-12-21T23:25:04.772Z,95.74
2017-12-21T23:27:32.259Z,95.48
2017-12-21T23:29:59.727Z,95.39
2017-12-21T23:32:27.181Z,95.89
2017-12-21T23:34:54.645Z,95.61
2017-12-21T23:37:22.103Z,95.30
2017-12-21T23:39:50.171Z,95.55
2017-12-21T23:42:17.618Z,95.47
2017-12-21T23:44:45.087Z,95.23
2017-12-21T23:47:12.621Z,95.25
2017-12-21T23:49:40.141Z,94.98
2017-12-21T23:52:07.598Z,94.75
2017-12-21T23:54:35.055Z,95.15
2017-12-21T23:57:02.653Z,94.92
2017-12-21T23:59:30.099Z,94.61
